Time;durP1;ratioP1;P1;durP2;ratioP2;P2;SDS_P1;SDS_P2;PMS_P1;PMS_P2;Temp;Humidity;BMP_temperature;BMP_pressure;BME280_temperature;BME280_humidity;BME280_pressure;Samples;Min_cycle;Max_cycle;Signal;HPM_P1;HPM_P2
2023/06/06 00:00:39;;;;;;;14.50;5.80;;;13.00;99.90;;;;;;5026083;28;20902;-84
2023/06/06 00:03:06;;;;;;;10.13;5.80;;;13.00;99.90;;;;;;5025425;28;20204;-83
2023/06/06 00:05:34;;;;;;;11.73;5.57;;;12.90;99.90;;;;;;5021992;28;20242;-86
2023/06/06 00:08:08;;;;;;;10.13;5.73;;;12.90;99.90;;;;;;5022601;28;20235;-84
2023/06/06 00:10:35;;;;;;;13.13;5.77;;;13.00;99.90;;;;;;5024642;28;20212;-84
2023/06/06 00:13:13;;;;;;;18.20;5.70;;;12.90;99.90;;;;;;5007135;28;20239;-85
2023/06/06 00:15:45;;;;;;;13.33;6.33;;;12.90;99.90;;;;;;5022275;28;20283;-84
2023/06/06 00:18:12;;;;;;;12.20;5.77;;;12.80;99.90;;;;;;5025108;28;20212;-86
2023/06/06 00:20:41;;;;;;;16.57;6.23;;;12.70;99.90;;;;;;5022409;28;20220;-84
2023/06/06 00:23:12;;;;;;;16.03;5.87;;;12.80;99.90;;;;;;5025097;28;20205;-84
2023/06/06 00:25:41;;;;;;;12.67;6.33;;;12.70;99.90;;;;;;5022708;28;20760;-84
2023/06/06 00:28:09;;;;;;;12.03;6.00;;;12.60;99.90;;;;;;5012199;28;20230;-86
2023/06/06 00:30:38;;;;;;;12.17;5.57;;;12.70;99.90;;;;;;5028445;28;20197;-86
2023/06/06 00:33:06;;;;;;;11.80;5.87;;;12.60;99.90;;;;;;5042888;28;20983;-84
2023/06/06 00:35:35;;;;;;;12.87;5.83;;;12.60;99.90;;;;;;5030688;28;20200;-82
2023/06/06 00:38:05;;;;;;;12.20;5.63;;;12.50;99.90;;;;;;5038691;28;20223;-86
2023/06/06 00:40:32;;;;;;;14.47;6.57;;;12.60;99.90;;;;;;5022331;28;20213;-84
2023/06/06 00:43:06;;;;;;;11.20;6.23;;;12.50;99.90;;;;;;5009946;28;20230;-83
2023/06/06 00:45:33;;;;;;;13.27;6.57;;;12.40;99.90;;;;;;5021596;28;20237;-84
2023/06/06 00:48:02;;;;;;;14.77;6.00;;;12.40;99.90;;;;;;4998544;28;20579;-83
2023/06/06 00:50:36;;;;;;;11.87;6.00;;;12.40;99.90;;;;;;5038113;28;20204;-84
2023/06/06 00:53:07;;;;;;;12.83;6.43;;;12.40;99.90;;;;;;5045087;28;20260;-84
2023/06/06 00:55:35;;;;;;;11.47;6.10;;;12.30;99.90;;;;;;5028118;28;20665;-84
2023/06/06 00:58:06;;;;;;;13.20;6.63;;;12.30;99.90;;;;;;5040580;28;20757;-84
2023/06/06 01:00:37;;;;;;;12.20;6.90;;;12.30;99.90;;;;;;5046303;28;20208;-84
2023/06/06 01:03:09;;;;;;;11.60;6.30;;;12.20;99.90;;;;;;5027496;28;20706;-84
2023/06/06 01:05:45;;;;;;;12.80;6.37;;;12.20;99.90;;;;;;5028089;28;20232;-85
2023/06/06 01:08:18;;;;;;;11.33;6.17;;;12.30;99.90;;;;;;5028555;28;20606;-83
2023/06/06 01:10:47;;;;;;;11.10;5.93;;;12.20;99.90;;;;;;5027685;28;20593;-83
2023/06/06 01:13:48;;;;;;;12.13;6.40;;;12.10;99.90;;;;;;5048788;28;20215;-83
2023/06/06 01:16:18;;;;;;;13.30;6.63;;;12.10;99.90;;;;;;5043370;28;20725;-84
2023/06/06 01:18:49;;;;;;;12.90;6.67;;;12.00;99.90;;;;;;5031452;28;20689;-83
2023/06/06 01:21:17;;;;;;;12.13;6.03;;;12.00;99.90;;;;;;5027270;28;20265;-83
2023/06/06 01:23:46;;;;;;;18.17;7.27;;;12.00;99.90;;;;;;5049121;28;20198;-84
2023/06/06 01:26:14;;;;;;;10.30;5.77;;;12.00;99.90;;;;;;5030931;28;20206;-84
2023/06/06 01:28:45;;;;;;;12.87;6.20;;;12.00;99.90;;;;;;5045929;28;20276;-85
2023/06/06 01:31:22;;;;;;;13.83;6.70;;;12.00;99.90;;;;;;5049318;28;20223;-83
2023/06/06 01:34:00;;;;;;;14.17;5.87;;;12.00;99.90;;;;;;5031889;28;20231;-85
2023/06/06 01:36:44;;;;;;;13.43;6.20;;;12.00;99.90;;;;;;5047254;28;20202;-84
2023/06/06 01:39:19;;;;;;;11.30;5.73;;;11.90;99.90;;;;;;5043103;28;20926;-83
2023/06/06 01:41:51;;;;;;;12.93;5.93;;;11.90;99.90;;;;;;5045749;28;20212;-84
2023/06/06 01:44:22;;;;;;;13.57;6.43;;;11.80;99.90;;;;;;5045701;28;20275;-84
2023/06/06 01:46:54;;;;;;;12.47;6.27;;;11.90;99.90;;;;;;5042406;28;20251;-85
2023/06/06 01:49:25;;;;;;;14.37;6.20;;;11.80;99.90;;;;;;5043982;28;20705;-84
2023/06/06 01:51:55;;;;;;;12.93;6.53;;;11.80;99.90;;;;;;5031257;28;20370;-87
2023/06/06 01:54:28;;;;;;;14.90;6.60;;;11.80;99.90;;;;;;5028868;28;20210;-83
2023/06/06 01:56:59;;;;;;;16.40;6.30;;;11.80;99.90;;;;;;5030149;28;20207;-84
2023/06/06 01:59:29;;;;;;;14.73;7.00;;;11.80;99.90;;;;;;5026994;28;20217;-84
2023/06/06 02:01:59;;;;;;;15.23;7.40;;;11.80;99.90;;;;;;5047059;28;20670;-85
2023/06/06 02:04:32;;;;;;;17.53;6.80;;;11.70;99.90;;;;;;5046364;28;20658;-84
2023/06/06 02:07:00;;;;;;;13.97;7.20;;;11.80;99.90;;;;;;5030081;28;20229;-82
2023/06/06 02:09:30;;;;;;;11.77;6.43;;;11.70;99.90;;;;;;5023437;28;20209;-83
2023/06/06 02:11:59;;;;;;;13.10;6.43;;;11.70;99.90;;;;;;5045856;28;20276;-83
2023/06/06 02:14:27;;;;;;;14.07;6.23;;;11.70;99.90;;;;;;5047373;28;20214;-86
2023/06/06 02:16:55;;;;;;;13.23;6.53;;;11.70;99.90;;;;;;5047074;28;20222;-86
2023/06/06 02:19:23;;;;;;;12.70;6.30;;;11.70;99.90;;;;;;5045939;28;20285;-83
2023/06/06 02:21:51;;;;;;;11.43;6.10;;;11.70;99.90;;;;;;5046570;28;20201;-86
2023/06/06 02:24:18;;;;;;;14.60;7.00;;;11.60;99.90;;;;;;5047095;28;20199;-84
2023/06/06 02:26:45;;;;;;;16.67;7.10;;;11.60;99.90;;;;;;5046538;28;20206;-85
2023/06/06 02:29:12;;;;;;;15.37;6.80;;;11.60;99.90;;;;;;5045401;28;20218;-84
2023/06/06 02:31:39;;;;;;;14.87;7.30;;;11.60;99.90;;;;;;5047113;28;20765;-83
2023/06/06 02:34:14;;;;;;;16.73;7.20;;;11.60;99.90;;;;;;5046052;28;20670;-83
2023/06/06 02:36:43;;;;;;;13.80;6.77;;;11.60;99.90;;;;;;5045699;28;20424;-83
2023/06/06 02:39:13;;;;;;;12.80;6.67;;;11.60;99.90;;;;;;5045267;28;20278;-85
2023/06/06 02:41:40;;;;;;;14.57;6.60;;;11.60;99.90;;;;;;5027478;28;20661;-83
2023/06/06 02:44:08;;;;;;;12.47;6.43;;;11.60;99.90;;;;;;5027878;28;20202;-84
2023/06/06 02:46:35;;;;;;;17.77;7.77;;;11.60;99.90;;;;;;5043180;28;20215;-84
2023/06/06 02:49:02;;;;;;;12.97;6.23;;;11.60;99.90;;;;;;5045939;28;20282;-83
2023/06/06 02:51:38;;;;;;;14.50;7.17;;;11.50;99.90;;;;;;5046486;28;20217;-88
2023/06/06 02:54:05;;;;;;;14.30;6.63;;;11.50;99.90;;;;;;5016802;28;20213;-86
2023/06/06 02:56:32;;;;;;;13.07;6.50;;;11.50;99.90;;;;;;5023782;28;20198;-87
2023/06/06 02:58:59;;;;;;;16.50;6.90;;;11.50;99.90;;;;;;5040759;28;20212;-83
2023/06/06 03:01:26;;;;;;;14.53;6.97;;;11.50;99.90;;;;;;5027463;28;20812;-85
2023/06/06 03:03:53;;;;;;;12.73;6.47;;;11.40;99.90;;;;;;5044819;28;20202;-86
2023/06/06 03:06:23;;;;;;;12.63;6.70;;;11.40;99.90;;;;;;5045709;28;20309;-84
2023/06/06 03:08:55;;;;;;;12.10;6.33;;;11.40;99.90;;;;;;5038083;28;20619;-84
2023/06/06 03:11:22;;;;;;;17.10;8.33;;;11.40;99.90;;;;;;5043157;28;20221;-84
2023/06/06 03:13:49;;;;;;;17.33;7.17;;;11.40;99.90;;;;;;5038586;28;20201;-86
2023/06/06 03:16:16;;;;;;;14.37;7.10;;;11.30;99.90;;;;;;5044825;28;20228;-82
2023/06/06 03:18:46;;;;;;;12.87;6.43;;;11.30;99.90;;;;;;5040268;28;20296;-85
2023/06/06 03:21:14;;;;;;;13.87;6.53;;;11.30;99.90;;;;;;5037224;28;20211;-85
2023/06/06 03:23:41;;;;;;;15.23;7.13;;;11.30;99.90;;;;;;5042608;28;20203;-83
2023/06/06 03:26:09;;;;;;;14.70;7.10;;;11.30;99.90;;;;;;5042768;28;20244;-84
2023/06/06 03:28:36;;;;;;;12.20;6.90;;;11.30;99.90;;;;;;5022850;28;20312;-82
2023/06/06 03:31:05;;;;;;;15.53;7.50;;;11.30;99.90;;;;;;5039497;28;21019;-84
2023/06/06 03:33:32;;;;;;;15.80;7.70;;;11.30;99.90;;;;;;5039613;28;20290;-85
2023/06/06 03:36:00;;;;;;;18.80;7.07;;;11.30;99.90;;;;;;5022712;28;20259;-84
2023/06/06 03:38:27;;;;;;;16.90;6.70;;;11.30;99.90;;;;;;5027019;28;20211;-82
2023/06/06 03:40:55;;;;;;;13.47;6.90;;;11.30;99.90;;;;;;5025753;28;20213;-84
2023/06/06 03:43:30;;;;;;;15.87;6.40;;;11.30;99.90;;;;;;5038531;28;20216;-83
2023/06/06 03:45:57;;;;;;;16.67;6.90;;;11.30;99.90;;;;;;5045103;28;21059;-84
2023/06/06 03:48:24;;;;;;;17.87;6.53;;;11.40;99.90;;;;;;5045136;28;20229;-84
2023/06/06 03:50:54;;;;;;;15.47;6.90;;;11.40;99.90;;;;;;5036601;28;20848;-86
2023/06/06 03:53:21;;;;;;;12.47;6.57;;;11.40;99.90;;;;;;5026759;28;20549;-85
2023/06/06 03:55:49;;;;;;;15.80;6.80;;;11.40;99.90;;;;;;5041722;28;20647;-85
2023/06/06 03:58:18;;;;;;;13.10;6.20;;;11.50;99.90;;;;;;5027775;28;20209;-85
2023/06/06 04:00:45;;;;;;;15.17;6.50;;;11.50;99.90;;;;;;5023678;28;20212;-86
2023/06/06 04:03:25;;;;;;;14.13;6.70;;;11.50;99.90;;;;;;5025425;28;20550;-85
2023/06/06 04:05:53;;;;;;;15.10;6.77;;;11.60;99.90;;;;;;5023867;28;20237;-84
2023/06/06 04:08:20;;;;;;;18.00;7.10;;;11.60;99.90;;;;;;5038302;28;20217;-85
2023/06/06 04:10:47;;;;;;;12.07;6.27;;;11.60;99.90;;;;;;5045205;28;20210;-83
2023/06/06 04:13:17;;;;;;;12.00;6.30;;;11.70;99.90;;;;;;5027226;28;20205;-82
2023/06/06 04:15:49;;;;;;;13.50;6.40;;;11.70;99.90;;;;;;5027522;28;20651;-86
2023/06/06 04:18:20;;;;;;;11.37;6.80;;;11.70;99.90;;;;;;5028860;28;20658;-84
2023/06/06 04:20:53;;;;;;;15.23;6.87;;;11.70;99.90;;;;;;5042788;28;20211;-84
2023/06/06 04:23:20;;;;;;;10.63;5.67;;;11.80;99.90;;;;;;5030006;28;20239;-83
2023/06/06 04:25:50;;;;;;;13.27;6.80;;;11.80;99.90;;;;;;5041675;28;20228;-87
2023/06/06 04:28:27;;;;;;;13.30;7.20;;;11.70;99.90;;;;;;5031215;28;20283;-85
2023/06/06 04:30:59;;;;;;;14.80;6.60;;;11.80;99.90;;;;;;5044890;28;20651;-83
2023/06/06 04:33:30;;;;;;;13.40;7.07;;;11.90;99.90;;;;;;5025559;28;20310;-82
2023/06/06 04:36:00;;;;;;;15.00;6.90;;;11.90;99.90;;;;;;5048693;28;20221;-84
2023/06/06 04:38:37;;;;;;;14.10;6.97;;;12.00;99.90;;;;;;5027948;28;20694;-84
2023/06/06 04:41:05;;;;;;;15.47;7.00;;;12.00;99.90;;;;;;5030790;28;20203;-86
2023/06/06 04:47:23;;;;;;;14.13;6.80;;;12.10;99.90;;;;;;5047792;28;20229;-86
2023/06/06 04:50:06;;;;;;;15.57;6.77;;;12.10;99.90;;;;;;5009447;28;20828;-82
2023/06/06 04:52:34;;;;;;;14.77;6.67;;;12.10;99.90;;;;;;5046670;28;20224;-81
2023/06/06 04:55:03;;;;;;;14.90;6.67;;;12.20;99.90;;;;;;5029472;28;20223;-82
2023/06/06 04:57:44;;;;;;;14.23;7.10;;;12.20;99.90;;;;;;5014268;28;20200;-85
2023/06/06 05:00:16;;;;;;;12.60;6.67;;;12.30;99.90;;;;;;5015669;28;20209;-85
2023/06/06 05:02:48;;;;;;;12.03;6.03;;;12.30;99.90;;;;;;5032174;28;20273;-87
2023/06/06 05:05:22;;;;;;;13.47;6.90;;;12.40;99.90;;;;;;5032602;28;20221;-85
2023/06/06 05:07:56;;;;;;;13.73;6.30;;;12.40;99.90;;;;;;5038511;28;20296;-85
2023/06/06 05:10:27;;;;;;;11.27;6.43;;;12.50;99.90;;;;;;5033213;28;20298;-84
2023/06/06 05:13:04;;;;;;;16.03;7.40;;;12.60;99.90;;;;;;5035117;28;20282;-82
2023/06/06 05:15:32;;;;;;;19.57;7.10;;;12.70;99.90;;;;;;5037327;28;20225;-84
2023/06/06 05:18:03;;;;;;;13.23;6.83;;;12.70;99.90;;;;;;5035217;28;20208;-84
2023/06/06 05:20:30;;;;;;;13.27;7.10;;;12.80;99.90;;;;;;5035932;28;20202;-83
2023/06/06 05:23:00;;;;;;;15.73;7.87;;;12.80;99.90;;;;;;5035822;28;20574;-84
2023/06/06 05:25:27;;;;;;;17.43;7.90;;;12.90;99.90;;;;;;5034776;28;20222;-85
2023/06/06 05:27:58;;;;;;;12.87;7.03;;;13.10;99.90;;;;;;5033903;28;20194;-86
2023/06/06 05:30:28;;;;;;;11.60;6.33;;;13.80;99.90;;;;;;5034932;28;20214;-86
2023/06/06 05:33:10;;;;;;;12.53;6.27;;;14.60;99.90;;;;;;5035107;28;20229;-85
2023/06/06 05:35:40;;;;;;;13.73;6.23;;;15.40;99.90;;;;;;5035644;28;20198;-83
2023/06/06 05:38:07;;;;;;;11.32;5.88;;;16.30;99.90;;;;;;5033987;28;20274;-83
2023/06/06 05:40:36;;;;;;;11.88;5.80;;;;;;;;;;5029467;28;20344;-85
2023/06/06 05:43:05;;;;;;;12.27;5.78;;;17.60;99.90;;;;;;5031784;28;20224;-86
2023/06/06 05:45:32;;;;;;;13.93;5.95;;;18.00;99.90;;;;;;5032871;28;20272;-84
2023/06/06 05:48:11;;;;;;;9.43;5.38;;;18.40;99.90;;;;;;5036627;28;20211;-91
2023/06/06 05:50:51;;;;;;;10.15;5.85;;;18.80;99.90;;;;;;5057124;28;20213;-86
2023/06/06 05:53:23;;;;;;;8.85;5.43;;;;;;;;;;5076324;28;20309;-83
2023/06/06 05:55:53;;;;;;;8.75;5.53;;;19.50;99.90;;;;;;5077512;28;20192;-87
2023/06/06 05:58:30;;;;;;;12.38;5.60;;;19.80;99.90;;;;;;5053600;28;20204;-85
2023/06/06 06:01:00;;;;;;;9.05;5.07;;;20.00;99.90;;;;;;5054140;28;20242;-85
2023/06/06 06:03:38;;;;;;;;;;;;;;;;;;;;;
2023/06/06 06:06:23;;;;;;;9.20;5.05;;;20.20;99.90;;;;;;5077166;28;20228;-83
2023/06/06 06:08:51;;;;;;;9.52;5.07;;;20.30;99.90;;;;;;5048087;28;20208;-83
2023/06/06 06:11:24;;;;;;;9.57;5.63;;;20.40;99.90;;;;;;5052709;28;20224;-87
2023/06/06 06:13:52;;;;;;;9.55;4.78;;;20.40;99.90;;;;;;5051717;28;20259;-86
2023/06/06 06:16:33;;;;;;;9.63;5.05;;;20.70;99.90;;;;;;5047135;28;20216;-86
2023/06/06 06:19:20;;;;;;;10.15;5.03;;;20.70;99.90;;;;;;5048709;28;20240;-85
2023/06/06 06:22:27;;;;;;;9.90;4.78;;;21.00;99.90;;;;;;5068018;28;20305;-85
2023/06/06 06:25:04;;;;;;;9.27;4.63;;;21.20;99.90;;;;;;5052385;28;20685;-85
2023/06/06 06:27:55;;;;;;;6.88;4.63;;;21.30;99.90;;;;;;5053461;28;20199;-88
2023/06/06 06:30:43;;;;;;;10.63;5.32;;;21.40;99.90;;;;;;5067665;28;20215;-86
2023/06/06 06:33:31;;;;;;;10.10;5.28;;;21.80;99.90;;;;;;5051415;28;20212;-88
2023/06/06 06:36:20;;;;;;;8.45;5.30;;;21.80;99.90;;;;;;5051353;28;20193;-84
2023/06/06 06:39:01;;;;;;;7.75;4.68;;;22.10;99.90;;;;;;5063536;28;20262;-84
2023/06/06 06:41:28;;;;;;;10.95;5.18;;;22.40;99.90;;;;;;5052311;28;20201;-87
2023/06/06 06:44:01;;;;;;;7.07;4.30;;;23.00;99.90;;;;;;5058274;28;20275;-91
2023/06/06 06:46:28;;;;;;;10.18;4.88;;;23.00;99.90;;;;;;5070024;28;20308;-87
2023/06/06 06:48:57;;;;;;;10.38;5.32;;;23.00;99.90;;;;;;5039750;28;20241;-89
2023/06/06 06:51:35;;;;;;;11.23;5.57;;;22.80;99.90;;;;;;5030831;28;20285;-89
2023/06/06 06:54:05;;;;;;;11.27;4.97;;;23.20;99.90;;;;;;5020332;28;20565;-89
2023/06/06 06:56:43;;;;;;;8.95;4.50;;;23.60;99.90;;;;;;5032746;28;20216;-86
2023/06/06 06:59:13;;;;;;;9.35;4.65;;;24.10;99.90;;;;;;5025985;28;20194;-85
2023/06/06 07:01:45;;;;;;;8.88;5.13;;;24.40;99.90;;;;;;5016184;28;20226;-86
2023/06/06 07:04:20;;;;;;;10.23;4.88;;;24.60;99.90;;;;;;5023684;28;20693;-86
2023/06/06 07:06:53;;;;;;;6.40;4.65;;;24.80;99.90;;;;;;5017757;28;20238;-80
2023/06/06 07:09:21;;;;;;;8.48;4.80;;;24.90;99.90;;;;;;5025832;28;20268;-85
2023/06/06 07:11:48;;;;;;;7.97;4.50;;;24.90;99.90;;;;;;5026342;28;20217;-83
2023/06/06 07:14:14;;;;;;;8.00;4.28;;;25.10;99.90;;;;;;5023910;28;20201;-86
2023/06/06 07:16:43;;;;;;;7.13;4.70;;;25.10;99.90;;;;;;5025575;28;20222;-90
2023/06/06 07:19:10;;;;;;;8.75;4.43;;;25.10;99.90;;;;;;5029946;28;20218;-86
2023/06/06 07:21:37;;;;;;;8.57;4.50;;;25.10;99.90;;;;;;5028976;28;20216;-86
2023/06/06 07:24:07;;;;;;;9.77;4.93;;;25.20;99.90;;;;;;5025743;28;20289;-87
2023/06/06 07:26:37;;;;;;;7.95;4.78;;;25.30;99.90;;;;;;5024387;28;20230;-86
2023/06/06 07:29:11;;;;;;;8.00;4.72;;;25.40;99.90;;;;;;5021354;28;20206;-89
2023/06/06 07:31:40;;;;;;;7.43;4.55;;;25.60;99.90;;;;;;5021842;28;20821;-88
2023/06/06 07:34:17;;;;;;;11.05;5.25;;;25.50;99.90;;;;;;5014025;28;20218;-88
2023/06/06 07:36:48;;;;;;;8.48;4.63;;;25.30;99.90;;;;;;5021801;28;20290;-88
2023/06/06 07:39:22;;;;;;;5.53;4.50;;;25.00;99.90;;;;;;5026021;28;20259;-88
2023/06/06 07:41:56;;;;;;;9.50;5.18;;;25.00;99.90;;;;;;5028903;28;20209;-87
2023/06/06 07:44:37;;;;;;;6.95;4.72;;;25.20;99.90;;;;;;5030708;28;20286;-87
2023/06/06 07:47:07;;;;;;;7.78;4.85;;;25.40;99.90;;;;;;5028025;28;20395;-88
2023/06/06 07:49:34;;;;;;;8.93;5.13;;;25.50;99.90;;;;;;5024203;28;20230;-87
2023/06/06 07:52:12;;;;;;;7.72;4.88;;;25.60;99.90;;;;;;5020900;28;20307;-85
2023/06/06 07:54:47;;;;;;;8.63;5.35;;;25.60;99.90;;;;;;5022106;28;20210;-84
2023/06/06 07:57:19;;;;;;;8.20;4.70;;;25.60;99.90;;;;;;5029798;28;20216;-88
2023/06/06 07:59:47;;;;;;;9.05;5.00;;;25.20;99.90;;;;;;5026504;28;20205;-85
2023/06/06 08:02:18;;;;;;;9.40;4.90;;;25.20;99.90;;;;;;5024071;28;20245;-85
2023/06/06 08:04:50;;;;;;;7.88;4.40;;;25.30;99.90;;;;;;5027474;28;20212;-88
2023/06/06 08:07:19;;;;;;;8.15;4.28;;;25.40;99.90;;;;;;5027585;28;20228;-86
2023/06/06 08:10:06;;;;;;;5.95;4.22;;;25.70;99.90;;;;;;5027352;28;20563;-87
2023/06/06 08:12:39;;;;;;;9.45;5.18;;;25.80;99.90;;;;;;5028232;28;20212;-86
2023/06/06 08:15:12;;;;;;;9.45;5.20;;;25.90;99.90;;;;;;5038615;28;20208;-88
2023/06/06 08:17:44;;;;;;;8.02;4.75;;;25.90;99.90;;;;;;5038982;28;20240;-85
2023/06/06 08:20:45;;;;;;;8.85;4.82;;;25.90;99.90;;;;;;5034193;28;20212;-88
2023/06/06 08:24:03;;;;;;;;;;;;;;;;;;;;;
2023/06/06 08:27:36;;;;;;;11.05;5.25;;;25.30;99.90;;;;;;5043898;28;20244;-86
2023/06/06 08:30:45;;;;;;;10.60;5.28;;;25.40;99.90;;;;;;5033547;28;20271;-88
2023/06/06 08:33:28;;;;;;;9.35;5.50;;;25.30;99.90;;;;;;5031497;28;20293;-86
2023/06/06 08:36:23;;;;;;;9.43;5.30;;;25.40;99.90;;;;;;5032446;28;20202;-89
2023/06/06 08:39:16;;;;;;;9.48;5.28;;;25.40;99.90;;;;;;5034666;28;20198;-88
2023/06/06 08:42:07;;;;;;;7.60;4.50;;;25.50;99.90;;;;;;5029660;28;20213;-85
2023/06/06 08:44:45;;;;;;;10.55;5.65;;;25.60;99.90;;;;;;5024485;28;20210;-86
2023/06/06 08:47:24;;;;;;;;;;;;;;;;;;;;;
2023/06/06 08:50:41;;;;;;;7.13;5.05;;;25.60;99.90;;;;;;4985864;28;20238;-88
2023/06/06 08:53:19;;;;;;;8.48;5.05;;;25.80;99.90;;;;;;4987370;28;20222;-88
2023/06/06 08:55:56;;;;;;;9.57;5.18;;;25.90;99.90;;;;;;5032632;28;20214;-86
2023/06/06 08:58:36;;;;;;;8.68;5.05;;;25.80;99.90;;;;;;5033187;28;20745;-86
2023/06/06 09:01:07;;;;;;;9.27;5.40;;;25.80;99.90;;;;;;5032422;28;20243;-88
2023/06/06 09:03:45;;;;;;;11.10;5.75;;;25.70;99.90;;;;;;5029528;28;20209;-86
2023/06/06 09:06:16;;;;;;;9.45;5.03;;;25.60;99.90;;;;;;5033023;28;20761;-86
2023/06/06 09:09:14;;;;;;;9.73;5.15;;;25.60;99.90;;;;;;5028151;28;20229;-87
2023/06/06 09:11:53;;;;;;;10.48;5.60;;;25.40;99.90;;;;;;5012079;28;20264;-87
2023/06/06 09:14:36;;;;;;;8.48;5.43;;;25.60;99.90;;;;;;5045553;28;20237;-86
2023/06/06 09:17:56;;;;;;;;;;;;;;;;;;;;;
2023/06/06 09:20:33;;;;;;;9.25;4.85;;;25.80;99.90;;;;;;5053283;28;20188;-87
2023/06/06 09:23:16;;;;;;;9.65;5.03;;;25.80;99.90;;;;;;5053839;28;20193;-85
2023/06/06 09:25:48;;;;;;;9.05;5.20;;;25.70;99.90;;;;;;5050835;28;20277;-87
2023/06/06 09:28:26;;;;;;;9.88;6.03;;;25.70;99.90;;;;;;5051679;28;20233;-87
2023/06/06 09:31:06;;;;;;;8.13;5.20;;;25.70;99.90;;;;;;5045521;28;20261;-86
2023/06/06 09:33:49;;;;;;;;;;;;;;;;;;;;;
2023/06/06 09:36:46;;;;;;;7.65;5.15;;;25.60;99.90;;;;;;4974417;28;20219;-87
2023/06/06 09:39:25;;;;;;;8.65;5.10;;;25.60;99.90;;;;;;4972988;28;20200;-87
2023/06/06 09:41:55;;;;;;;8.80;5.60;;;25.50;99.90;;;;;;4971209;28;20278;-86
2023/06/06 09:44:28;;;;;;;9.73;5.05;;;25.60;99.90;;;;;;5001280;28;20233;-83
2023/06/06 09:47:01;;;;;;;8.18;5.40;;;25.70;99.90;;;;;;5027181;28;20268;-84
2023/06/06 09:49:36;;;;;;;11.10;5.43;;;26.00;99.90;;;;;;5028900;28;20536;-82
2023/06/06 09:52:05;;;;;;;12.10;4.90;;;26.00;99.90;;;;;;5025199;28;20198;-83
2023/06/06 09:54:36;;;;;;;11.02;5.75;;;26.10;99.90;;;;;;5030540;28;20659;-86
2023/06/06 09:57:13;;;;;;;10.18;5.28;;;26.00;99.90;;;;;;5051072;28;20347;-87
2023/06/06 10:00:41;;;;;;;12.52;6.05;;;26.00;99.90;;;;;;5043275;28;20205;-88
2023/06/06 10:04:06;;;;;;;9.02;5.40;;;26.00;99.90;;;;;;5046214;28;20341;-89
2023/06/06 10:08:05;;;;;;;;;;;;;;;;;;;;;
2023/06/06 10:11:42;;;;;;;;;;;;;;;;;;;;;
2023/06/06 10:15:24;;;;;;;;;;;;;;;;;;;;;
2023/06/06 10:18:44;;;;;;;9.82;5.40;;;25.80;99.90;;;;;;5034568;28;20297;-89
2023/06/06 10:30:05;;;;;;;;;;;;;;;;;;;;;
2023/06/06 10:33:42;;;;;;;;;;;;;;;;;;;;;
2023/06/06 10:37:16;;;;;;;10.02;5.85;;;25.50;99.90;;;;;;5011793;28;20199;-88
2023/06/06 10:40:39;;;;;;;7.95;5.07;;;25.40;99.90;;;;;;4965762;28;20216;-90
2023/06/06 10:43:45;;;;;;;10.63;5.95;;;25.40;99.90;;;;;;4962396;28;20324;-89
2023/06/06 10:47:10;;;;;;;11.18;6.30;;;25.50;99.90;;;;;;4958477;28;20216;-90
2023/06/06 10:54:55;;;;;;;13.73;5.68;;;25.80;99.90;;;;;;4984080;28;20204;-90
2023/06/06 11:01:40;;;;;;;;;;;;;;;;;;;;;
2023/06/06 11:05:28;;;;;;;;;;;;;;;;;;;;;
2023/06/06 11:08:59;;;;;;;;;;;;;;;;;;;;;
2023/06/06 11:12:17;;;;;;;10.00;5.75;;;26.00;99.90;;;;;;5075687;28;20659;-77
2023/06/06 11:15:06;;;;;;;9.15;5.15;;;26.10;99.90;;;;;;5075139;28;20565;-77
2023/06/06 11:17:50;;;;;;;12.05;6.53;;;26.10;99.90;;;;;;5077728;28;20273;-77
2023/06/06 11:20:22;;;;;;;11.02;6.18;;;26.20;99.90;;;;;;5077574;28;20204;-77
2023/06/06 11:23:01;;;;;;;9.55;5.72;;;26.20;99.90;;;;;;5076481;28;20204;-77
2023/06/06 11:25:30;;;;;;;12.15;5.30;;;26.20;99.90;;;;;;5077884;28;20208;-78
2023/06/06 11:27:58;;;;;;;8.95;5.47;;;26.20;99.90;;;;;;5075019;28;20204;-76
2023/06/06 11:30:36;;;;;;;13.00;6.57;;;26.40;99.90;;;;;;5076494;28;20231;-78
2023/06/06 11:33:11;;;;;;;9.27;5.60;;;26.30;99.90;;;;;;5079358;28;20200;-79
2023/06/06 11:35:39;;;;;;;10.07;5.72;;;26.40;99.90;;;;;;5075604;28;20245;-78
2023/06/06 11:38:07;;;;;;;14.90;6.65;;;26.30;99.90;;;;;;5085227;28;20220;-77
2023/06/06 11:40:35;;;;;;;10.98;6.47;;;25.80;99.90;;;;;;5085854;28;20195;-75
2023/06/06 11:43:02;;;;;;;11.40;6.45;;;25.70;99.90;;;;;;5078879;28;20278;-76
2023/06/06 11:45:31;;;;;;;10.82;6.28;;;25.60;99.90;;;;;;5082243;28;20667;-78
2023/06/06 11:47:58;;;;;;;9.60;6.10;;;25.50;99.90;;;;;;5082475;28;20220;-77
2023/06/06 11:50:44;;;;;;;10.25;6.60;;;25.60;99.90;;;;;;5077225;28;20228;-77
2023/06/06 11:53:11;;;;;;;11.50;6.05;;;25.70;99.90;;;;;;5075863;28;20220;-79
2023/06/06 11:55:38;;;;;;;8.88;5.43;;;25.80;99.90;;;;;;5077898;28;20226;-77
2023/06/06 11:58:05;;;;;;;9.80;5.82;;;26.00;99.90;;;;;;5073238;28;20299;-75
2023/06/06 12:00:33;;;;;;;9.27;6.00;;;26.10;99.90;;;;;;5079351;28;20224;-77
2023/06/06 12:03:02;;;;;;;11.27;5.65;;;26.10;99.90;;;;;;5073936;28;20212;-78
2023/06/06 12:05:30;;;;;;;10.13;5.68;;;26.30;99.90;;;;;;5075901;28;20729;-76
2023/06/06 12:08:00;;;;;;;9.15;5.35;;;26.30;99.90;;;;;;5069722;28;20588;-77
2023/06/06 12:10:31;;;;;;;12.15;5.72;;;26.50;99.90;;;;;;5074588;28;20235;-76
2023/06/06 12:12:59;;;;;;;12.20;6.85;;;26.60;99.90;;;;;;5076405;28;20245;-77
2023/06/06 12:15:47;;;;;;;8.98;5.90;;;26.70;99.90;;;;;;5075551;28;20562;-78
2023/06/06 12:18:14;;;;;;;10.32;5.22;;;26.60;99.90;;;;;;5081130;28;20236;-79
2023/06/06 12:20:43;;;;;;;9.13;5.38;;;26.60;99.90;;;;;;5079309;28;20211;-79
2023/06/06 12:23:10;;;;;;;8.95;5.18;;;26.70;99.90;;;;;;5062256;28;20213;-77
2023/06/06 12:25:37;;;;;;;9.60;5.38;;;26.80;99.90;;;;;;5060007;28;20213;-76
2023/06/06 12:28:09;;;;;;;7.45;4.65;;;26.80;99.90;;;;;;5060610;28;20205;-77
2023/06/06 12:30:36;;;;;;;8.73;4.45;;;26.80;99.90;;;;;;5059694;28;20224;-79
2023/06/06 12:33:03;;;;;;;8.27;4.28;;;26.80;99.90;;;;;;5059544;28;20235;-77
2023/06/06 12:35:30;;;;;;;6.38;4.13;;;26.90;99.90;;;;;;5061781;28;20680;-79
2023/06/06 12:38:01;;;;;;;10.23;5.20;;;26.90;99.90;;;;;;5058875;28;20220;-77
2023/06/06 12:40:35;;;;;;;9.63;5.10;;;27.00;99.90;;;;;;5053834;28;20672;-78
2023/06/06 12:43:05;;;;;;;9.40;4.15;;;27.00;99.90;;;;;;5057076;28;20629;-76
2023/06/06 12:45:36;;;;;;;10.30;4.70;;;27.10;99.90;;;;;;5061895;28;20202;-76
2023/06/06 12:48:04;;;;;;;11.05;4.82;;;27.10;99.90;;;;;;5067083;28;20573;-76
2023/06/06 12:50:31;;;;;;;13.10;5.38;;;27.20;99.90;;;;;;5058783;28;20236;-77
2023/06/06 12:52:59;;;;;;;7.63;4.40;;;27.20;99.90;;;;;;5060022;28;20223;-77
2023/06/06 12:55:26;;;;;;;9.35;5.25;;;27.30;99.90;;;;;;5056678;28;20663;-77
2023/06/06 12:57:54;;;;;;;9.35;5.07;;;27.40;99.90;;;;;;5067379;28;20231;-76
2023/06/06 13:00:21;;;;;;;9.30;4.63;;;27.30;99.90;;;;;;5056609;28;20201;-76
2023/06/06 13:02:49;;;;;;;10.68;4.68;;;27.30;99.90;;;;;;5059617;28;20237;-76
2023/06/06 13:05:16;;;;;;;9.23;4.25;;;27.40;99.90;;;;;;5063928;28;20189;-77
2023/06/06 13:07:43;;;;;;;7.63;4.25;;;27.40;99.90;;;;;;5060827;28;20211;-76
2023/06/06 13:10:12;;;;;;;8.38;4.25;;;27.50;99.90;;;;;;5057720;28;20239;-77
2023/06/06 13:12:40;;;;;;;8.95;4.50;;;27.70;99.70;;;;;;5057002;28;20197;-76
2023/06/06 13:15:11;;;;;;;9.85;5.15;;;27.70;99.40;;;;;;5061114;28;20216;-78
2023/06/06 13:17:38;;;;;;;7.35;4.40;;;27.70;99.30;;;;;;5056681;28;20685;-77
2023/06/06 13:20:06;;;;;;;6.10;4.13;;;27.60;99.20;;;;;;5058552;28;20292;-78
2023/06/06 13:22:34;;;;;;;9.65;5.32;;;27.60;99.30;;;;;;5060279;28;20641;-78
2023/06/06 13:25:03;;;;;;;7.57;4.05;;;27.60;99.20;;;;;;5057694;28;20216;-77
2023/06/06 13:27:30;;;;;;;8.80;4.47;;;27.60;99.10;;;;;;5063016;28;20239;-76
2023/06/06 13:29:57;;;;;;;8.77;4.20;;;27.60;98.80;;;;;;5057525;28;20698;-78
2023/06/06 13:32:23;;;;;;;5.63;3.67;;;27.70;99.10;;;;;;5058632;28;20233;-76
2023/06/06 13:34:51;;;;;;;5.13;3.72;;;27.80;99.00;;;;;;5057828;28;20627;-78
2023/06/06 13:37:17;;;;;;;6.13;3.92;;;27.90;98.90;;;;;;5057115;28;20209;-77
2023/06/06 13:39:44;;;;;;;7.65;4.35;;;28.00;98.70;;;;;;5062373;28;20239;-77
2023/06/06 13:42:11;;;;;;;7.78;3.78;;;28.00;98.60;;;;;;5054537;28;20209;-78
2023/06/06 13:44:38;;;;;;;7.50;4.03;;;27.90;98.50;;;;;;5058038;28;20296;-78
2023/06/06 13:47:05;;;;;;;10.15;4.35;;;27.90;98.70;;;;;;5062025;28;20787;-78
2023/06/06 13:49:32;;;;;;;7.43;4.25;;;27.90;99.10;;;;;;5055447;28;20292;-77
2023/06/06 13:52:00;;;;;;;7.57;3.92;;;28.00;99.00;;;;;;5059486;28;20228;-76
2023/06/06 13:54:27;;;;;;;6.50;4.25;;;28.10;98.40;;;;;;5058892;28;20208;-77
2023/06/06 13:56:54;;;;;;;6.35;3.92;;;28.10;97.90;;;;;;5058862;28;20661;-77
2023/06/06 13:59:22;;;;;;;8.25;4.05;;;28.10;98.10;;;;;;5060210;28;20200;-77